首页
METAR-TAF:

METAR-TAF

机场 :

巴克烏, 罗马尼亚

纬度: 46-35N, 经度: 026-58E, 海拔: 184米

当前天气观测

该预报发布于23分钟前的18:30 UTC
风速4节,风向
温度 10°C
湿度 100%
气压 1020 hPa
能見度: 5000
阴天层高于1000英尺
轻雾

METAR: LRBC 151830Z 17004KT 5000 BR OVC010 10/10 Q1020 R16/210395

时间: 20:53 (18:53 UTC)

预报

该预报发布于1小时和53分钟前的17:00 UTC
预报有效从15日的 18点(UTC)到 16日的 03点(UTC)
风速7节,风向
能見度: 5000
散云层高于200英尺
阴天层高于500英尺
轻雾
成为
从 15日的 18点(UTC)到 15日的 20点(UTC)
能見度: 3000
轻雾
短暂存在
从 16日的 00点(UTC)到 16日的 03点(UTC)
能見度: 1500
多云层高于200英尺
阴天层高于500英尺
轻雾

TAF: LRBC 151700Z 1518/1603 17007KT 5000 BR SCT002 OVC005 BECMG 1518/1520 3000 BR TEMPO 1600/1603 1500 BR BKN002 OVC005

超过4000个机场的气象观测和天气预报(METAR&TAF报告)。

可查询的气象台以黄色和红色小点在地图上表示。

将鼠标移到小点上方,可查看气象台名称。

然后点击查看天气观测和预报。

如需切换地图:点击带黑十字的绿色按钮放大地图;点击带横线的绿色按钮缩小地图;或者点击绿色箭头查看邻近地区的地图。


METAR-TAF: